Time;durP1;ratioP1;P1;durP2;ratioP2;P2;SDS_P1;SDS_P2;PMS_P1;PMS_P2;Temp;Humidity;BMP_temperature;BMP_pressure;BME280_temperature;BME280_humidity;BME280_pressure;Samples;Min_cycle;Max_cycle;Signal;HPM_P1;HPM_P2
2022/03/30 00:00:10;;;;;;;21.77;10.20;;;;;;;11.14;38.94;93357.63;4966016;28;20521;-73
2022/03/30 00:02:38;;;;;;;16.70;9.05;;;;;;;10.85;39.41;93357.72;4966140;28;20046;-75
2022/03/30 00:05:04;;;;;;;18.52;8.48;;;;;;;9.15;41.90;93332.41;4981990;28;20104;-71
2022/03/30 00:07:31;;;;;;;14.95;8.38;;;;;;;9.62;41.89;93343.06;4965526;28;20149;-72
2022/03/30 00:10:01;;;;;;;17.42;8.38;;;;;;;9.48;41.83;93337.19;4962910;28;20034;-73
2022/03/30 00:12:27;;;;;;;15.32;8.25;;;;;;;10.12;40.60;93329.88;4963613;28;20037;-73
2022/03/30 00:14:53;;;;;;;16.25;9.57;;;;;;;10.02;40.58;93344.31;4962834;28;20022;-72
2022/03/30 00:17:18;;;;;;;13.07;8.65;;;;;;;8.63;43.15;93285.78;4963411;28;20400;-72
2022/03/30 00:19:44;;;;;;;17.63;8.82;;;;;;;9.76;41.87;93346.28;4962044;28;20088;-72
2022/03/30 00:22:09;;;;;;;14.27;8.70;;;;;;;9.60;41.57;93318.69;4976611;28;20037;-74
2022/03/30 00:24:35;;;;;;;15.85;8.88;;;;;;;9.66;41.55;93290.88;4965506;28;20559;-74
2022/03/30 00:27:02;;;;;;;15.55;8.73;;;;;;;10.10;40.69;93322.22;4966366;28;20027;-74
2022/03/30 00:29:28;;;;;;;23.67;10.32;;;;;;;8.18;44.85;93343.59;4964751;28;20042;-72
2022/03/30 00:31:54;;;;;;;22.58;10.98;;;;;;;7.27;47.35;93346.81;4961668;28;20368;-72
2022/03/30 00:34:19;;;;;;;23.15;10.45;;;;;;;7.67;46.48;93321.94;4964738;28;20537;-72
2022/03/30 00:36:44;;;;;;;17.02;9.88;;;;;;;8.00;45.83;93338.25;4958593;28;20070;-74
2022/03/30 00:39:10;;;;;;;25.73;10.10;;;;;;;7.91;46.28;93344.63;4981762;28;20109;-71
2022/03/30 00:41:35;;;;;;;22.35;8.68;;;;;;;8.05;45.33;93303.69;4979912;28;20314;-72
2022/03/30 00:44:09;;;;;;;15.05;9.02;;;;;;;8.66;44.81;93349.56;4962849;28;20035;-72
2022/03/30 00:46:35;;;;;;;17.80;10.45;;;;;;;8.44;44.82;93347.84;4980639;28;20038;-72
2022/03/30 00:49:01;;;;;;;18.95;9.75;;;;;;;8.81;44.16;93335.84;4965717;28;20100;-74
2022/03/30 00:51:27;;;;;;;18.02;9.88;;;;;;;8.89;44.43;93347.56;4966167;28;20050;-72
2022/03/30 00:53:52;;;;;;;21.13;9.57;;;;;;;8.50;44.67;93337.88;4964018;28;20053;-71
2022/03/30 00:56:18;;;;;;;19.45;9.82;;;;;;;8.92;44.18;93353.00;4994813;28;20069;-72
2022/03/30 00:58:43;;;;;;;19.13;9.68;;;;;;;8.88;43.41;93311.50;4967467;28;20039;-72
2022/03/30 01:01:09;;;;;;;18.33;9.55;;;;;;;8.83;44.00;93323.06;4989523;28;20039;-72
2022/03/30 01:03:35;;;;;;;17.85;9.23;;;;;;;9.59;42.73;93341.81;4963661;28;20501;-73
2022/03/30 01:06:01;;;;;;;19.92;9.48;;;;;;;9.55;42.61;93321.53;4963763;28;20511;-73
2022/03/30 01:08:26;;;;;;;15.43;9.38;;;;;;;9.55;41.72;93274.53;4961975;28;20157;-73
2022/03/30 01:10:52;;;;;;;17.00;9.30;;;;;;;9.75;41.91;93302.22;4966973;28;20188;-72
2022/03/30 01:13:18;;;;;;;25.35;9.55;;;;;;;10.04;41.40;93320.84;4961577;28;20440;-73
2022/03/30 01:15:45;;;;;;;21.63;10.77;;;;;;;10.19;40.92;93319.50;4965883;28;20035;-73
2022/03/30 01:18:12;;;;;;;18.08;9.38;;;;;;;10.29;40.79;93314.59;4964847;28;20037;-72
2022/03/30 01:20:38;;;;;;;17.88;9.60;;;;;;;10.47;40.56;93330.44;4960868;28;20031;-73
2022/03/30 01:23:03;;;;;;;22.48;9.45;;;;;;;10.25;40.82;93300.41;4963252;28;20042;-71
2022/03/30 01:25:29;;;;;;;13.27;8.68;;;;;;;9.79;41.35;93285.34;4966184;28;20393;-72
2022/03/30 01:27:55;;;;;;;18.20;9.80;;;;;;;9.23;43.09;93296.34;4960638;28;20624;-73
2022/03/30 01:33:07;;;;;;;19.90;10.13;;;;;;;10.14;41.19;93309.06;4962254;28;20516;-73
2022/03/30 01:35:34;;;;;;;17.98;9.65;;;;;;;10.02;41.48;93320.41;4965327;28;20051;-74
2022/03/30 01:38:01;;;;;;;15.35;9.45;;;;;;;10.22;40.87;93326.84;4961014;28;20034;-72
2022/03/30 01:40:27;;;;;;;18.20;8.63;;;;;;;10.37;40.85;93325.53;4964519;28;20042;-72
2022/03/30 01:42:52;;;;;;;14.98;9.15;;;;;;;10.18;40.92;93302.78;4985071;28;20045;-73
2022/03/30 01:45:18;;;;;;;19.42;10.45;;;;;;;10.26;40.72;93314.47;4985878;28;20036;-72
2022/03/30 01:47:52;;;;;;;17.48;9.95;;;;;;;10.43;40.80;93340.97;4963782;28;20120;-72
2022/03/30 01:50:17;;;;;;;18.10;10.75;;;;;;;10.46;40.75;93335.00;4965786;28;20034;-73
2022/03/30 01:52:43;;;;;;;16.55;9.63;;;;;;;10.52;40.43;93340.88;4967935;28;20050;-73
2022/03/30 01:55:09;;;;;;;15.77;9.25;;;;;;;10.41;40.23;93310.50;4964603;28;20572;-74
2022/03/30 01:57:34;;;;;;;16.52;9.20;;;;;;;10.65;40.18;93337.22;4965570;28;20845;-72
2022/03/30 02:00:03;;;;;;;18.27;9.52;;;;;;;9.45;42.57;93339.34;4968141;28;20114;-72
2022/03/30 02:02:29;;;;;;;18.75;9.50;;;;;;;9.95;41.77;93337.91;4965740;28;20046;-72
2022/03/30 02:04:55;;;;;;;15.30;10.15;;;;;;;9.82;41.55;93299.88;4965372;28;20089;-73
2022/03/30 02:07:20;;;;;;;14.43;9.15;;;;;;;9.22;43.26;93340.66;4963709;28;20175;-73
2022/03/30 02:09:46;;;;;;;15.82;10.80;;;;;;;9.73;42.42;93346.94;4963243;28;20576;-73
2022/03/30 02:12:11;;;;;;;17.83;9.77;;;;;;;9.93;41.62;93332.91;4966033;28;20034;-74
2022/03/30 02:14:37;;;;;;;26.15;10.10;;;;;;;10.04;41.83;93347.41;4969179;28;20043;-72
2022/03/30 02:17:03;;;;;;;16.58;9.80;;;;;;;10.05;41.70;93350.84;4967066;28;20048;-73
2022/03/30 02:19:29;;;;;;;18.85;9.63;;;;;;;10.08;41.33;93350.19;4970099;28;20101;-72
2022/03/30 02:21:54;;;;;;;18.60;9.50;;;;;;;10.08;41.58;93350.97;5002387;28;20038;-75
2022/03/30 02:24:20;;;;;;;20.25;10.73;;;;;;;10.11;41.38;93350.34;4967659;28;20043;-73
2022/03/30 02:26:47;;;;;;;16.10;10.63;;;;;;;10.16;41.23;93347.50;4968834;28;20604;-72
2022/03/30 02:29:13;;;;;;;13.55;9.75;;;;;;;10.17;41.32;93345.63;4967195;28;20421;-74
2022/03/30 02:31:39;;;;;;;18.65;9.10;;;;;;;10.27;41.21;93355.88;4966002;28;20041;-73
2022/03/30 02:34:04;;;;;;;18.00;10.13;;;;;;;10.03;41.16;93329.91;4968737;28;20050;-72
2022/03/30 02:36:30;;;;;;;18.08;9.80;;;;;;;10.00;41.25;93333.22;4967051;28;20216;-73
2022/03/30 02:38:56;;;;;;;20.15;10.48;;;;;;;10.19;41.41;93352.19;4971156;28;20027;-71
2022/03/30 02:41:22;;;;;;;22.95;11.55;;;;;;;10.18;41.26;93358.59;4961319;28;20635;-73
2022/03/30 02:43:47;;;;;;;24.98;12.23;;;;;;;10.10;41.13;93366.59;4969138;28;20042;-74
2022/03/30 02:46:13;;;;;;;26.85;13.00;;;;;;;10.04;41.25;93350.06;4964999;28;20403;-72
2022/03/30 02:48:40;;;;;;;22.23;10.23;;;;;;;9.99;41.30;93342.28;4969864;28;20022;-73
2022/03/30 02:51:09;;;;;;;17.65;8.98;;;;;;;9.99;41.64;93357.44;4968952;28;20089;-75
2022/03/30 02:53:35;;;;;;;18.60;10.10;;;;;;;10.00;41.34;93359.78;4969642;28;20708;-74
2022/03/30 02:56:02;;;;;;;19.95;9.45;;;;;;;9.81;41.72;93322.22;4969594;28;20580;-73
2022/03/30 02:58:29;;;;;;;21.50;11.98;;;;;;;10.04;41.76;93352.72;4967470;28;20145;-71
2022/03/30 03:00:55;;;;;;;19.73;11.30;;;;;;;10.08;41.59;93350.97;4966286;28;20968;-74
2022/03/30 03:03:21;;;;;;;22.13;10.85;;;;;;;10.10;41.80;93348.78;4967109;28;20036;-72
2022/03/30 03:05:48;;;;;;;20.92;9.98;;;;;;;10.15;41.38;93335.31;4965801;28;20158;-75
2022/03/30 03:08:13;;;;;;;20.55;10.23;;;;;;;10.11;41.34;93317.69;4968159;28;20159;-72
2022/03/30 03:10:42;;;;;;;17.90;9.50;;;;;;;10.27;41.32;93338.03;4967792;28;20479;-72
2022/03/30 03:13:07;;;;;;;21.65;10.32;;;;;;;10.15;41.43;93313.28;4966986;28;20062;-71
2022/03/30 03:15:35;;;;;;;19.60;9.52;;;;;;;10.11;41.59;93342.38;4984009;28;20117;-71
2022/03/30 03:18:02;;;;;;;16.45;10.18;;;;;;;10.24;41.13;93328.06;4967846;28;20029;-74
2022/03/30 03:20:28;;;;;;;21.05;10.13;;;;;;;10.30;41.25;93336.63;4965938;28;20293;-73
2022/03/30 03:22:55;;;;;;;20.05;10.70;;;;;;;10.22;41.23;93330.25;4968667;28;20035;-74
2022/03/30 03:25:20;;;;;;;15.70;9.60;;;;;;;10.25;41.12;93328.84;4965961;28;20042;-73
2022/03/30 03:27:46;;;;;;;16.13;9.68;;;;;;;10.19;41.36;93332.78;4967976;28;20093;-72
2022/03/30 03:30:13;;;;;;;20.38;10.25;;;;;;;10.10;41.36;93337.38;4966569;28;20481;-75
2022/03/30 03:32:38;;;;;;;17.85;9.68;;;;;;;9.96;41.95;93326.97;4999620;28;20645;-73
2022/03/30 03:35:05;;;;;;;16.73;10.38;;;;;;;9.92;41.76;93326.06;4965087;28;20149;-72
2022/03/30 03:37:30;;;;;;;40.55;13.48;;;;;;;9.81;41.97;93306.28;4967114;28;20477;-72
2022/03/30 03:39:56;;;;;;;50.08;16.25;;;;;;;9.84;42.13;93337.50;4963031;28;20035;-72
2022/03/30 03:42:21;;;;;;;74.18;21.92;;;;;;;9.87;42.06;93347.50;4967568;28;20042;-73
2022/03/30 03:44:47;;;;;;;63.58;22.52;;;;;;;9.90;41.77;93346.84;4965099;28;20043;-73
2022/03/30 03:47:13;;;;;;;48.85;17.35;;;;;;;9.94;41.87;93339.00;4966641;28;20038;-72
2022/03/30 03:49:39;;;;;;;31.48;15.70;;;;;;;9.88;42.00;93346.38;4967660;28;20042;-72
2022/03/30 03:52:05;;;;;;;27.75;12.93;;;;;;;9.67;41.97;93317.13;4967077;28;20468;-72
2022/03/30 03:54:33;;;;;;;19.10;11.13;;;;;;;9.82;42.33;93345.03;4967019;28;20037;-71
2022/03/30 03:56:58;;;;;;;15.73;9.80;;;;;;;9.65;42.25;93315.88;4969736;28;20575;-72
2022/03/30 03:59:24;;;;;;;19.10;10.25;;;;;;;9.82;42.00;93337.06;4969969;28;20038;-73
2022/03/30 04:01:49;;;;;;;17.15;9.38;;;;;;;9.87;42.05;93335.00;4967150;28;20034;-73
2022/03/30 04:04:16;;;;;;;22.55;9.40;;;;;;;9.91;42.10;93327.16;4964533;28;20638;-74
2022/03/30 04:06:41;;;;;;;22.17;9.68;;;;;;;9.96;41.97;93321.66;4968529;28;20501;-74
2022/03/30 04:09:07;;;;;;;18.55;10.35;;;;;;;10.02;42.11;93317.75;4966279;28;20051;-74
2022/03/30 04:11:33;;;;;;;33.95;15.27;;;;;;;9.96;42.03;93297.75;4963097;28;20042;-74
2022/03/30 04:13:58;;;;;;;33.42;16.25;;;;;;;10.12;41.90;93321.91;4963970;28;20038;-73
2022/03/30 04:16:23;;;;;;;34.60;14.18;;;;;;;10.05;42.07;93311.00;4963588;28;20459;-73
2022/03/30 04:18:49;;;;;;;27.27;11.98;;;;;;;10.17;41.81;93330.44;4966051;28;20057;-72
2022/03/30 04:21:14;;;;;;;17.65;11.15;;;;;;;10.21;41.52;93325.28;4963424;28;20038;-74
2022/03/30 04:23:40;;;;;;;21.23;9.95;;;;;;;10.22;41.59;93330.25;4962981;28;20121;-73
2022/03/30 04:26:05;;;;;;;19.92;9.52;;;;;;;10.13;41.57;93313.59;4962880;28;20108;-73
2022/03/30 04:28:31;;;;;;;22.00;11.38;;;;;;;10.17;41.64;93329.69;4965991;28;20103;-73
2022/03/30 04:30:57;;;;;;;28.23;12.15;;;;;;;10.02;41.75;93320.41;4972341;28;20038;-73
2022/03/30 04:33:22;;;;;;;27.67;13.73;;;;;;;10.11;41.75;93333.63;4965283;28;20391;-72
2022/03/30 04:35:48;;;;;;;21.17;10.98;;;;;;;10.13;41.92;93348.13;4967204;28;20039;-72
2022/03/30 04:38:14;;;;;;;19.25;10.10;;;;;;;10.18;41.65;93347.94;4961254;28;20837;-71
2022/03/30 04:40:40;;;;;;;21.20;10.57;;;;;;;10.11;41.68;93313.16;4967442;28;20038;-73
2022/03/30 04:43:06;;;;;;;17.83;8.90;;;;;;;10.29;41.82;93335.84;4963828;28;20041;-72
2022/03/30 04:45:31;;;;;;;18.13;9.80;;;;;;;10.18;42.17;93317.94;4970865;28;20026;-72
2022/03/30 04:47:57;;;;;;;21.50;9.32;;;;;;;10.14;42.73;93335.63;4973442;28;20084;-74
2022/03/30 04:50:23;;;;;;;17.60;10.02;;;;;;;8.82;45.35;93329.44;4968149;28;20027;-73
2022/03/30 04:52:50;;;;;;;18.95;9.40;;;;;;;8.87;45.69;93331.16;4965671;28;20042;-74
2022/03/30 04:55:15;;;;;;;16.83;9.07;;;;;;;9.48;44.27;93331.88;4965317;28;20069;-74
2022/03/30 04:57:41;;;;;;;15.50;9.50;;;;;;;9.67;44.10;93335.72;4973491;28;20026;-72
2022/03/30 05:00:10;;;;;;;18.17;9.82;;;;;;;8.96;45.39;93342.53;4965741;28;20061;-72
2022/03/30 05:02:36;;;;;;;21.10;9.98;;;;;;;8.49;47.04;93344.25;4962024;28;20530;-73
2022/03/30 05:05:02;;;;;;;19.63;11.25;;;;;;;8.64;46.98;93345.69;4970871;28;20031;-72
2022/03/30 05:07:28;;;;;;;20.67;11.45;;;;;;;8.75;46.60;93352.25;4962425;28;20094;-74
2022/03/30 05:09:54;;;;;;;20.38;11.40;;;;;;;8.01;47.87;93339.03;4966634;28;20043;-71
2022/03/30 05:12:19;;;;;;;17.67;9.93;;;;;;;8.43;47.38;93333.03;4983170;28;20026;-73
2022/03/30 05:14:44;;;;;;;24.65;12.30;;;;;;;8.90;46.42;93343.81;4968703;28;20228;-72
2022/03/30 05:17:10;;;;;;;19.90;11.10;;;;;;;9.04;46.03;93365.63;4967179;28;20453;-75
2022/03/30 05:19:37;;;;;;;37.92;12.95;;;;;;;8.49;46.84;93334.44;4971840;28;20507;-73
2022/03/30 05:22:04;;;;;;;28.42;11.95;;;;;;;9.08;46.40;93355.97;4965637;28;20562;-74
2022/03/30 05:24:30;;;;;;;25.92;12.55;;;;;;;8.91;46.25;93340.03;4969996;28;20070;-72
2022/03/30 05:26:56;;;;;;;21.15;10.88;;;;;;;8.83;46.18;93311.66;4971796;28;21108;-72
2022/03/30 05:29:21;;;;;;;21.85;11.38;;;;;;;8.84;46.92;93358.31;4963700;28;20045;-72
2022/03/30 05:31:46;;;;;;;26.83;11.60;;;;;;;8.45;47.31;93327.44;4969686;28;20484;-72
2022/03/30 05:34:12;;;;;;;27.27;12.13;;;;;;;7.77;48.97;93333.38;4971014;28;20057;-72
2022/03/30 05:36:37;;;;;;;21.17;10.88;;;;;;;7.82;49.47;93360.50;4969335;28;20033;-73
2022/03/30 05:39:03;;;;;;;20.75;12.05;;;;;;;7.95;49.50;93361.44;4973403;28;20029;-73
2022/03/30 05:41:29;;;;;;;20.85;10.93;;;;;;;7.81;50.08;93350.19;4965789;28;20042;-71
2022/03/30 05:43:54;;;;;;;25.88;11.32;;;;;;;7.67;50.27;93355.56;4971339;28;20039;-72
2022/03/30 05:46:21;;;;;;;21.70;12.20;;;;;;;7.59;50.77;93359.72;4968808;28;20354;-74
2022/03/30 05:48:46;;;;;;;22.77;10.93;;;;;;;7.63;50.76;93355.38;4967628;28;20402;-72
2022/03/30 05:51:11;;;;;;;25.63;13.35;;;;;;;7.46;50.10;93334.16;4990188;28;20076;-74
2022/03/30 05:53:37;;;;;;;17.98;10.77;;;;;;;7.90;49.75;93348.34;4965330;28;20044;-73
2022/03/30 05:56:03;;;;;;;21.30;10.88;;;;;;;8.32;49.23;93352.19;4969099;28;20046;-72
2022/03/30 05:58:29;;;;;;;24.80;10.77;;;;;;;8.36;49.19;93350.50;4967281;28;20053;-73
2022/03/30 06:00:54;;;;;;;27.10;11.88;;;;;;;8.39;48.73;93348.00;4961069;28;20046;-73
2022/03/30 06:03:20;;;;;;;22.08;12.75;;;;;;;7.83;49.79;93332.13;4966854;28;20036;-72
2022/03/30 06:05:45;;;;;;;19.90;11.40;;;;;;;8.58;49.24;93353.78;4967858;28;20157;-74
2022/03/30 06:08:11;;;;;;;28.02;11.18;;;;;;;9.06;47.71;93363.44;4964609;28;20496;-73
2022/03/30 06:10:37;;;;;;;24.52;11.32;;;;;;;8.96;48.42;93347.84;4969084;28;20298;-73
2022/03/30 06:13:03;;;;;;;23.45;11.27;;;;;;;8.93;47.59;93370.47;4964761;28;20532;-73
2022/03/30 06:15:30;;;;;;;22.48;10.55;;;;;;;8.79;47.67;93342.56;4979367;28;20038;-71
2022/03/30 06:17:56;;;;;;;23.95;13.30;;;;;;;8.95;47.99;93362.97;4980345;28;20392;-73
2022/03/30 06:20:22;;;;;;;34.85;14.15;;;;;;;8.35;49.11;93333.81;4963075;28;20873;-72
2022/03/30 06:22:48;;;;;;;26.48;12.90;;;;;;;9.08;48.68;93360.47;4966444;28;20035;-72
2022/03/30 06:25:14;;;;;;;22.35;12.15;;;;;;;9.40;47.19;93342.19;4959653;28;20505;-72
2022/03/30 06:27:41;;;;;;;24.85;12.48;;;;;;;9.33;47.52;93365.78;4962733;28;20026;-72
2022/03/30 06:30:09;;;;;;;31.48;13.45;;;;;;;9.18;48.10;93362.84;4966664;28;20391;-71
2022/03/30 06:32:35;;;;;;;29.08;11.88;;;;;;;8.94;47.78;93334.91;4963749;28;20042;-74
2022/03/30 06:35:05;;;;;;;24.02;12.13;;;;;;;9.31;47.69;93364.53;4959893;28;20065;-72
2022/03/30 06:37:31;;;;;;;19.73;11.63;;;;;;;9.57;46.97;93369.78;4962081;28;20043;-73
2022/03/30 06:39:56;;;;;;;24.10;11.13;;;;;;;9.53;47.03;93368.88;4959810;28;20049;-72
2022/03/30 06:42:22;;;;;;;24.35;12.57;;;;;;;9.83;46.15;93371.25;4967670;28;20060;-73
2022/03/30 06:44:48;;;;;;;22.58;11.38;;;;;;;10.09;46.11;93379.09;4963467;28;20157;-74
2022/03/30 06:47:13;;;;;;;19.67;11.88;;;;;;;9.94;46.16;93376.19;4965125;28;20126;-71
2022/03/30 06:49:38;;;;;;;28.65;12.57;;;;;;;9.94;45.90;93366.34;4964596;28;20039;-74
2022/03/30 06:52:05;;;;;;;24.02;12.68;;;;;;;9.88;45.60;93359.66;4963101;28;20101;-72
2022/03/30 06:54:31;;;;;;;24.65;13.45;;;;;;;9.67;45.38;93295.88;4964015;28;20125;-72
2022/03/30 06:57:04;;;;;;;26.95;13.15;;;;;;;9.64;46.15;93375.38;4979146;28;20027;-72
2022/03/30 06:59:29;;;;;;;20.90;12.88;;;;;;;10.03;45.85;93393.66;4968481;28;20031;-74
2022/03/30 07:01:55;;;;;;;24.88;11.77;;;;;;;9.95;46.10;93383.84;4962270;28;20042;-73
2022/03/30 07:04:21;;;;;;;19.20;9.82;;;;;;;10.24;45.20;93356.53;4962603;28;20485;-71
2022/03/30 07:12:15;;;;;;;31.95;10.82;;;;;;;11.28;43.08;93362.66;4964440;28;20092;-74
2022/03/30 07:14:41;;;;;;;32.90;14.02;;;;;;;10.86;43.65;93359.25;4961596;28;20038;-73
2022/03/30 07:17:09;;;;;;;25.45;12.13;;;;;;;11.12;43.62;93377.69;4965237;28;20551;-74
2022/03/30 07:19:37;;;;;;;28.58;11.70;;;;;;;11.31;43.22;93372.66;4965805;28;20085;-73
2022/03/30 07:22:06;;;;;;;27.58;13.18;;;;;;;10.62;44.09;93353.81;4959503;28;20441;-72
2022/03/30 07:24:32;;;;;;;18.77;11.38;;;;;;;10.88;43.62;93354.41;4962910;28;20925;-74
2022/03/30 07:26:57;;;;;;;20.75;10.45;;;;;;;10.84;43.23;93358.03;4967854;28;20099;-73
2022/03/30 07:29:23;;;;;;;16.42;10.30;;;;;;;11.04;43.24;93360.69;4960280;28;20082;-72
2022/03/30 07:31:48;;;;;;;28.15;10.98;;;;;;;11.16;43.25;93336.78;4962109;28;20480;-72
2022/03/30 07:34:14;;;;;;;20.33;10.13;;;;;;;11.08;42.83;93328.88;4962530;28;20094;-74
2022/03/30 07:36:40;;;;;;;16.67;10.52;;;;;;;11.12;42.80;93341.19;4959076;28;20489;-73
2022/03/30 07:39:05;;;;;;;19.45;10.13;;;;;;;11.31;42.84;93337.25;4964529;28;20029;-72
2022/03/30 07:41:31;;;;;;;16.92;10.65;;;;;;;11.35;42.38;93360.22;4960970;28;20046;-73
2022/03/30 07:43:56;;;;;;;19.30;9.63;;;;;;;11.68;41.77;93344.28;4960206;28;20732;-72
2022/03/30 07:46:22;;;;;;;21.20;9.73;;;;;;;11.90;41.32;93343.84;4959468;28;20121;-75
2022/03/30 07:48:47;;;;;;;23.17;12.15;;;;;;;12.11;41.26;93377.63;4960852;28;20504;-72
2022/03/30 07:51:13;;;;;;;18.42;10.45;;;;;;;12.28;40.76;93356.84;4954831;28;20074;-75
2022/03/30 07:53:38;;;;;;;20.02;11.18;;;;;;;12.40;40.95;93342.75;4957875;28;20114;-73
2022/03/30 07:56:04;;;;;;;25.67;11.48;;;;;;;11.57;41.39;93348.47;4953481;28;20126;-72
2022/03/30 07:58:29;;;;;;;21.80;10.95;;;;;;;12.27;40.29;93354.53;4957325;28;20509;-72
2022/03/30 08:00:55;;;;;;;22.17;11.20;;;;;;;11.96;41.11;93353.19;4959157;28;20035;-73
2022/03/30 08:03:21;;;;;;;19.90;11.13;;;;;;;12.50;40.43;93360.94;4955578;28;20073;-73
2022/03/30 08:05:48;;;;;;;13.75;9.82;;;;;;;12.72;39.66;93352.47;4956921;28;20348;-74
2022/03/30 08:08:14;;;;;;;18.95;10.40;;;;;;;12.33;39.97;93347.84;4961339;28;20374;-71
2022/03/30 08:10:39;;;;;;;23.30;11.27;;;;;;;12.47;40.71;93358.94;4959478;28;20042;-72
2022/03/30 08:13:06;;;;;;;18.95;11.00;;;;;;;11.93;40.89;93361.81;4957487;28;20038;-76
2022/03/30 08:15:32;;;;;;;20.25;10.98;;;;;;;12.07;40.69;93342.09;4958479;28;20063;-75
2022/03/30 08:17:58;;;;;;;22.13;11.43;;;;;;;11.95;40.87;93348.97;4960139;28;20034;-75
2022/03/30 08:23:08;;;;;;;23.10;10.55;;;;;;;12.07;40.41;93360.75;4961398;28;20093;-75
2022/03/30 08:25:34;;;;;;;25.45;10.82;;;;;;;12.18;40.16;93343.97;4957467;28;20054;-75
2022/03/30 08:28:00;;;;;;;27.20;10.63;;;;;;;12.07;40.29;93331.44;4961913;28;20133;-74
2022/03/30 08:30:25;;;;;;;18.30;10.55;;;;;;;12.19;40.85;93337.53;4975215;28;20504;-75
2022/03/30 08:32:51;;;;;;;18.75;11.48;;;;;;;12.18;40.18;93335.97;4959512;28;20539;-75
2022/03/30 08:35:16;;;;;;;19.63;9.98;;;;;;;12.13;40.32;93314.84;4961955;28;20664;-75
2022/03/30 08:37:42;;;;;;;14.75;9.32;;;;;;;12.97;39.05;93325.72;4958148;28;20592;-76
2022/03/30 08:40:08;;;;;;;19.30;8.95;;;;;;;12.91;38.39;93273.72;4959339;28;20058;-75
2022/03/30 08:42:34;;;;;;;21.67;10.63;;;;;;;13.48;38.65;93306.16;4955721;28;20035;-75
2022/03/30 08:45:02;;;;;;;21.98;9.18;;;;;;;12.74;39.01;93310.25;4957425;28;20042;-75
2022/03/30 08:47:28;;;;;;;16.77;10.60;;;;;;;12.57;40.05;93301.69;4960494;28;20087;-75
2022/03/30 08:49:53;;;;;;;20.40;10.27;;;;;;;12.58;38.85;93277.38;4963242;28;20415;-75
2022/03/30 08:52:19;;;;;;;23.13;11.15;;;;;;;12.49;39.58;93298.03;4959832;28;20503;-76
2022/03/30 08:54:46;;;;;;;21.48;11.00;;;;;;;12.53;39.77;93280.25;4992234;28;20513;-75
2022/03/30 08:57:13;;;;;;;22.02;10.05;;;;;;;12.40;39.48;93276.06;4961319;28;20026;-76
2022/03/30 08:59:39;;;;;;;24.13;11.30;;;;;;;12.03;39.23;93204.16;4968007;28;20038;-76
2022/03/30 09:02:04;;;;;;;19.75;12.13;;;;;;;13.01;38.77;93299.91;4960847;28;20096;-76
2022/03/30 09:04:30;;;;;;;24.92;12.50;;;;;;;12.78;38.52;93271.09;4961179;28;20755;-75
2022/03/30 09:06:58;;;;;;;25.23;11.15;;;;;;;13.01;38.74;93290.00;4965125;28;20153;-76
2022/03/30 09:09:32;;;;;;;21.38;10.77;;;;;;;12.89;39.14;93282.06;4962844;28;20043;-75
2022/03/30 09:11:59;;;;;;;24.88;12.15;;;;;;;13.06;38.42;93286.31;4997786;28;20539;-75
2022/03/30 09:14:28;;;;;;;22.67;11.25;;;;;;;13.47;37.76;93288.56;4961856;28;20460;-76
2022/03/30 09:16:56;;;;;;;22.08;10.00;;;;;;;13.26;37.14;93259.41;4969081;28;20559;-75
2022/03/30 09:19:23;;;;;;;20.40;10.82;;;;;;;13.32;36.74;93257.25;4963376;28;20476;-74
2022/03/30 09:21:49;;;;;;;25.45;8.65;;;;;;;13.77;35.67;93262.22;4956960;28;20038;-75
2022/03/30 09:24:18;;;;;;;12.23;7.03;;;;;;;13.85;34.42;93257.81;4961371;28;20357;-75
2022/03/30 09:26:44;;;;;;;18.35;9.05;;;;;;;13.71;36.03;93245.69;4960171;28;20070;-75
2022/03/30 09:29:10;;;;;;;15.98;8.43;;;;;;;13.32;36.46;93209.19;4962273;28;20153;-75
2022/03/30 09:31:38;;;;;;;16.60;8.05;;;;;;;13.61;35.16;93258.78;4958097;28;20038;-76
2022/03/30 09:34:06;;;;;;;14.70;8.00;;;;;;;13.47;35.56;93240.47;4962632;28;20038;-75
2022/03/30 09:36:35;;;;;;;16.92;7.55;;;;;;;13.60;35.34;93251.88;4960512;28;20034;-73
2022/03/30 09:39:02;;;;;;;16.77;7.18;;;;;;;13.61;34.84;93253.44;4963735;28;20656;-75
2022/03/30 09:41:48;;;;;;;19.20;7.18;;;;;;;13.75;35.73;93243.84;4958617;28;20417;-74
2022/03/30 09:44:14;;;;;;;11.20;6.55;;;;;;;13.55;34.45;93223.50;4963674;28;20038;-75
2022/03/30 09:46:56;;;;;;;11.65;5.95;;;;;;;13.81;33.52;93225.66;4993535;28;20483;-75
2022/03/30 09:49:39;;;;;;;15.15;7.25;;;;;;;14.42;33.75;93209.81;4983031;28;20571;-74
2022/03/30 09:52:11;;;;;;;16.77;8.18;;;;;;;14.65;33.91;93203.81;4993548;28;20066;-74
2022/03/30 09:54:54;;;;;;;12.75;6.97;;;;;;;14.82;34.59;93203.34;4960464;28;20385;-75
2022/03/30 09:57:21;;;;;;;15.00;6.72;;;;;;;14.51;32.70;93185.53;4963215;28;20026;-74
2022/03/30 10:00:09;;;;;;;10.13;6.05;;;;;;;14.34;31.93;93210.78;4963064;28;20600;-74
2022/03/30 10:02:44;;;;;;;12.18;6.30;;;;;;;14.49;32.40;93196.59;4959070;28;20043;-74
2022/03/30 10:05:11;;;;;;;15.45;5.15;;;;;;;14.35;32.63;93168.78;4976762;28;20574;-74
2022/03/30 10:07:37;;;;;;;10.68;5.65;;;;;;;14.51;33.28;93189.00;4956566;28;20035;-74
2022/03/30 10:10:05;;;;;;;7.75;5.53;;;;;;;14.74;32.25;93193.66;4964056;28;20592;-75
2022/03/30 10:12:34;;;;;;;12.35;7.05;;;;;;;15.23;32.29;93191.88;4963580;28;20061;-75
2022/03/30 10:14:59;;;;;;;5.95;3.97;;;;;;;15.09;30.84;93169.44;4962316;28;20113;-74
2022/03/30 10:17:26;;;;;;;6.75;4.75;;;;;;;15.11;30.94;93154.53;4959065;28;20737;-74
2022/03/30 10:19:57;;;;;;;13.40;5.85;;;;;;;15.04;30.61;93173.19;4961359;28;20046;-74
2022/03/30 10:22:38;;;;;;;11.30;5.15;;;;;;;15.57;30.55;93173.31;4957229;28;20359;-74
2022/03/30 10:25:18;;;;;;;11.05;5.05;;;;;;;15.30;30.33;93167.88;4967197;28;20386;-74
2022/03/30 10:28:14;;;;;;;8.60;4.38;;;;;;;15.32;30.72;93167.53;4964147;28;20125;-74
2022/03/30 10:30:43;;;;;;;12.00;5.28;;;;;;;15.31;31.28;93126.56;4979092;28;20509;-73
2022/03/30 10:33:10;;;;;;;11.18;4.63;;;;;;;15.50;31.12;93141.81;4962954;28;20689;-74
2022/03/30 10:35:47;;;;;;;9.10;4.72;;;;;;;15.18;30.80;93122.53;4961503;28;20042;-75
2022/03/30 10:38:14;;;;;;;16.60;5.18;;;;;;;15.18;30.87;93079.69;4957274;28;20041;-74
2022/03/30 10:40:41;;;;;;;13.25;4.78;;;;;;;15.37;30.02;93138.53;4976683;28;20255;-75
2022/03/30 10:43:11;;;;;;;8.27;5.00;;;;;;;15.52;29.66;93126.16;4956782;28;20038;-74
2022/03/30 10:45:59;;;;;;;9.02;4.53;;;;;;;15.93;28.80;93137.09;4960585;28;20112;-75
2022/03/30 10:48:28;;;;;;;9.20;4.65;;;;;;;15.81;28.96;93132.69;4958819;28;20817;-74
2022/03/30 10:50:55;;;;;;;10.52;4.05;;;;;;;15.89;29.11;93137.81;4965618;28;20772;-74
2022/03/30 10:53:30;;;;;;;9.68;5.63;;;;;;;16.06;28.62;93125.78;4961656;28;20415;-74
2022/03/30 10:56:15;;;;;;;11.90;4.90;;;;;;;16.14;29.37;93123.94;4980760;28;22486;-74
2022/03/30 10:58:49;;;;;;;;;;;;;;;16.10;28.89;93128.50;4966145;28;20181;-74
2022/03/30 11:01:18;;;;;;;13.07;5.18;;;;;;;15.84;28.60;93126.63;4979679;28;20202;-74
2022/03/30 11:04:04;;;;;;;14.00;7.32;;;;;;;15.89;28.54;93118.25;4962041;28;20461;-73
2022/03/30 11:06:40;;;;;;;9.02;4.85;;;;;;;15.76;28.64;93111.56;4971024;28;20030;-74
2022/03/30 11:09:28;;;;;;;20.30;7.55;;;;;;;16.13;29.06;93115.16;4965351;28;20053;-74
2022/03/30 11:12:09;;;;;;;12.02;6.05;;;;;;;16.40;28.63;93131.19;4960461;28;20041;-73
2022/03/30 11:14:37;;;;;;;10.02;3.22;;;;;;;15.68;27.53;93112.63;4962624;28;20848;-74
2022/03/30 11:17:04;;;;;;;9.15;4.18;;;;;;;15.95;27.88;93124.84;4971581;28;20363;-74
2022/03/30 11:19:49;;;;;;;7.65;4.10;;;;;;;16.33;28.53;93109.66;4967224;28;20352;-74
2022/03/30 11:22:33;;;;;;;16.80;3.63;;;;;;;16.28;28.78;93071.25;4963285;28;20630;-74
2022/03/30 11:25:22;;;;;;;10.68;4.22;;;;;;;16.52;28.74;93128.28;4965402;28;20045;-74
2022/03/30 11:27:57;;;;;;;5.97;2.83;;;;;;;16.18;27.51;93106.75;4965937;28;20409;-73
2022/03/30 11:30:24;;;;;;;8.48;2.97;;;;;;;15.61;28.13;93107.13;4981728;28;20489;-74
2022/03/30 11:32:49;;;;;;;4.93;2.85;;;;;;;15.46;27.54;93090.84;4967179;28;20135;-73
2022/03/30 11:35:18;;;;;;;5.57;3.08;;;;;;;15.50;28.13;93120.38;4967040;28;21358;-74